createdAt,value
2022-10-03T00:01:18.081Z,100.00
2022-10-03T00:04:22.093Z,100.00
2022-10-03T00:07:13.632Z,100.00
2022-10-03T00:10:14.110Z,100.00
2022-10-03T00:13:07.704Z,100.00
2022-10-03T00:15:55.607Z,100.00
2022-10-03T00:18:41.107Z,100.00
2022-10-03T00:21:34.754Z,100.00
2022-10-03T00:24:27.083Z,100.00
2022-10-03T00:27:03.436Z,100.00
2022-10-03T00:29:45.738Z,100.00
2022-10-03T00:32:54.684Z,100.00
2022-10-03T00:35:49.379Z,100.00
2022-10-03T00:38:42.194Z,100.00
2022-10-03T00:41:21.037Z,100.00
2022-10-03T00:44:20.149Z,100.00
2022-10-03T00:47:33.411Z,100.00
2022-10-03T00:50:42.197Z,100.00
2022-10-03T00:53:43.527Z,100.00
2022-10-03T00:56:29.514Z,100.00
2022-10-03T01:00:05.528Z,100.00
2022-10-03T01:02:47.951Z,100.00
2022-10-03T01:05:54.296Z,92.27
2022-10-03T01:09:06.905Z,98.08
2022-10-03T01:12:23.040Z,93.03
2022-10-03T01:15:39.168Z,100.00
2022-10-03T01:18:39.711Z,100.00
2022-10-03T01:21:33.389Z,94.71
2022-10-03T01:24:27.932Z,100.00
2022-10-03T01:26:59.116Z,100.00
2022-10-03T01:30:10.775Z,97.23
2022-10-03T01:32:47.501Z,100.00
2022-10-03T01:35:47.983Z,100.00
2022-10-03T01:38:40.197Z,100.00
2022-10-03T01:41:32.580Z,99.74
2022-10-03T01:44:23.050Z,100.00
2022-10-03T01:47:05.783Z,100.00
2022-10-03T01:49:51.593Z,97.25
2022-10-03T01:52:52.149Z,92.92
2022-10-03T01:55:32.426Z,88.87
2022-10-03T01:58:23.157Z,100.00
2022-10-03T02:01:12.547Z,97.55
2022-10-03T02:04:02.624Z,98.59
2022-10-03T02:06:45.312Z,100.00
2022-10-03T02:09:50.987Z,100.00
2022-10-03T02:12:29.624Z,96.05
2022-10-03T02:15:05.865Z,100.00
2022-10-03T02:17:57.915Z,100.00
2022-10-03T02:20:43.283Z,100.00
2022-10-03T02:23:31.595Z,98.54
2022-10-03T02:26:33.309Z,100.00
2022-10-03T02:29:34.170Z,100.00
2022-10-03T02:32:54.816Z,100.00
2022-10-03T02:35:52.152Z,100.00
2022-10-03T02:38:46.259Z,100.00
2022-10-03T02:41:19.977Z,100.00
2022-10-03T02:44:02.847Z,100.00
2022-10-03T02:47:10.082Z,100.00
2022-10-03T02:50:08.004Z,100.00
2022-10-03T02:53:18.724Z,100.00
2022-10-03T02:56:04.037Z,100.00
2022-10-03T02:59:00.163Z,100.00
2022-10-03T03:02:00.846Z,100.00
2022-10-03T03:05:05.584Z,100.00
2022-10-03T03:08:21.293Z,100.00
2022-10-03T03:11:26.137Z,100.00
2022-10-03T03:14:14.116Z,96.94
2022-10-03T03:16:48.627Z,100.00
2022-10-03T03:19:32.582Z,100.00
2022-10-03T03:22:56.833Z,87.61
2022-10-03T03:25:50.618Z,94.84
2022-10-03T03:28:43.726Z,100.00
2022-10-03T03:31:44.483Z,100.00
2022-10-03T03:34:22.434Z,100.00
2022-10-03T03:37:09.351Z,100.00
2022-10-03T03:40:05.160Z,100.00
2022-10-03T03:43:23.780Z,100.00
2022-10-03T03:46:30.667Z,98.15
2022-10-03T03:49:01.674Z,100.00
2022-10-03T03:52:09.728Z,100.00
2022-10-03T03:55:40.716Z,100.00
2022-10-03T03:58:21.304Z,100.00
2022-10-03T04:01:46.426Z,100.00
2022-10-03T04:04:41.693Z,100.00
2022-10-03T04:07:43.014Z,100.00
2022-10-03T04:10:28.033Z,100.00
2022-10-03T04:13:19.193Z,100.00
2022-10-03T04:16:12.906Z,100.00
2022-10-03T04:19:00.734Z,100.00
2022-10-03T04:21:45.666Z,100.00
2022-10-03T04:25:01.421Z,100.00
2022-10-03T04:27:40.254Z,100.00
2022-10-03T04:30:24.589Z,100.00
2022-10-03T04:33:32.686Z,100.00
2022-10-03T04:36:32.261Z,100.00
2022-10-03T04:39:29.481Z,100.00
2022-10-03T04:42:14.636Z,100.00
2022-10-03T04:45:14.265Z,100.00
2022-10-03T04:48:06.557Z,100.00
2022-10-03T04:51:16.957Z,100.00
2022-10-03T04:53:54.781Z,100.00
2022-10-03T04:57:06.208Z,100.00
2022-10-03T04:59:54.428Z,100.00
2022-10-03T05:03:26.867Z,100.00
2022-10-03T05:06:43.198Z,100.00
2022-10-03T05:09:50.373Z,100.00
2022-10-03T05:12:57.339Z,100.00
2022-10-03T05:15:36.406Z,100.00
2022-10-03T05:18:45.478Z,100.00
2022-10-03T05:21:37.584Z,100.00
2022-10-03T05:24:34.698Z,100.00
2022-10-03T05:27:56.117Z,100.00
2022-10-03T05:31:20.295Z,100.00
2022-10-03T05:34:48.021Z,100.00
2022-10-03T05:37:52.674Z,100.00
2022-10-03T05:40:30.476Z,100.00
2022-10-03T05:43:25.771Z,100.00
2022-10-03T05:46:30.905Z,100.00
2022-10-03T05:49:33.216Z,100.00
2022-10-03T05:52:12.495Z,100.00
2022-10-03T05:55:25.646Z,100.00
2022-10-03T05:58:34.022Z,100.00
2022-10-03T06:01:41.715Z,100.00
2022-10-03T06:05:08.367Z,100.00
2022-10-03T06:08:08.884Z,100.00
2022-10-03T06:11:10.222Z,100.00
2022-10-03T06:14:17.600Z,100.00
2022-10-03T06:17:24.792Z,100.00
2022-10-03T06:20:14.917Z,100.00
2022-10-03T06:23:37.318Z,100.00
2022-10-03T06:26:58.138Z,100.00
2022-10-03T06:30:11.735Z,100.00
2022-10-03T06:33:45.996Z,100.00
2022-10-03T06:37:11.199Z,100.00
2022-10-03T06:39:59.165Z,100.00
2022-10-03T06:42:44.318Z,100.00
2022-10-03T06:45:49.917Z,99.03
2022-10-03T06:49:12.171Z,100.00
2022-10-03T06:52:15.200Z,100.00
2022-10-03T06:55:29.100Z,100.00
2022-10-03T06:58:32.609Z,100.00
2022-10-03T07:01:11.477Z,100.00
2022-10-03T07:04:09.266Z,100.00
2022-10-03T07:07:13.382Z,100.00
2022-10-03T07:10:21.244Z,100.00
2022-10-03T07:13:21.230Z,100.00
2022-10-03T07:16:33.917Z,100.00
2022-10-03T07:19:27.541Z,100.00
2022-10-03T07:22:17.200Z,100.00
2022-10-03T07:25:31.580Z,100.00
2022-10-03T07:28:32.966Z,100.00
2022-10-03T07:31:34.463Z,100.00
2022-10-03T07:34:18.631Z,100.00
2022-10-03T07:37:36.322Z,100.00
2022-10-03T07:40:33.720Z,100.00
2022-10-03T07:43:39.981Z,100.00
2022-10-03T07:46:24.830Z,100.00
2022-10-03T07:49:41.179Z,100.00
2022-10-03T07:52:32.993Z,100.00
2022-10-03T07:55:25.636Z,100.00
2022-10-03T07:58:26.663Z,100.00
2022-10-03T08:01:37.670Z,100.00
2022-10-03T08:04:45.066Z,100.00
2022-10-03T08:07:58.039Z,100.00
2022-10-03T08:10:52.468Z,100.00
2022-10-03T08:13:49.431Z,100.00
2022-10-03T08:17:13.041Z,100.00
2022-10-03T08:20:18.711Z,100.00
2022-10-03T08:23:13.242Z,100.00
2022-10-03T08:26:20.300Z,100.00
2022-10-03T08:29:16.810Z,100.00
2022-10-03T08:32:08.786Z,100.00
2022-10-03T08:34:35.806Z,100.00
2022-10-03T08:37:57.381Z,100.00
2022-10-03T08:41:07.848Z,100.00
2022-10-03T08:43:55.743Z,100.00
2022-10-03T08:47:09.130Z,100.00
2022-10-03T08:50:17.678Z,100.00
2022-10-03T08:53:20.562Z,100.00
2022-10-03T08:56:17.038Z,100.00
2022-10-03T08:59:14.263Z,100.00
2022-10-03T09:02:09.929Z,100.00
2022-10-03T09:05:24.565Z,100.00
2022-10-03T09:08:33.423Z,100.00
2022-10-03T09:11:44.204Z,100.00
2022-10-03T09:14:27.274Z,100.00
2022-10-03T09:17:16.822Z,100.00
2022-10-03T09:20:53.120Z,100.00
2022-10-03T09:24:13.410Z,100.00
2022-10-03T09:27:12.534Z,100.00
2022-10-03T09:30:05.670Z,100.00
2022-10-03T09:33:17.170Z,100.00
2022-10-03T09:36:08.696Z,100.00
2022-10-03T09:39:19.086Z,100.00
2022-10-03T09:42:03.791Z,100.00
2022-10-03T09:45:12.112Z,100.00
2022-10-03T09:48:17.922Z,100.00
2022-10-03T09:51:11.557Z,100.00
2022-10-03T09:53:53.127Z,100.00
2022-10-03T09:56:26.202Z,100.00
2022-10-03T09:59:52.384Z,93.99
2022-10-03T10:03:15.899Z,91.06
2022-10-03T10:06:24.690Z,91.71
2022-10-03T10:09:26.034Z,92.16
2022-10-03T10:12:31.764Z,100.00
2022-10-03T10:15:48.305Z,100.00
2022-10-03T10:18:58.633Z,100.00
2022-10-03T10:22:01.776Z,100.00
2022-10-03T10:25:22.223Z,100.00
2022-10-03T10:28:26.363Z,100.00
2022-10-03T10:31:39.979Z,100.00
2022-10-03T10:34:43.968Z,100.00
2022-10-03T10:37:24.105Z,100.00
2022-10-03T10:40:42.557Z,100.00
2022-10-03T10:44:08.660Z,100.00
2022-10-03T10:47:13.085Z,100.00
2022-10-03T10:50:13.792Z,100.00
2022-10-03T10:53:27.526Z,100.00
2022-10-03T10:56:44.198Z,100.00
2022-10-03T10:59:33.170Z,100.00
2022-10-03T11:03:10.236Z,100.00
2022-10-03T11:06:44.239Z,100.00
2022-10-03T11:09:47.674Z,100.00
2022-10-03T11:12:50.850Z,100.00
2022-10-03T11:15:47.665Z,100.00
2022-10-03T11:18:59.490Z,100.00
2022-10-03T11:21:51.093Z,100.00
2022-10-03T11:25:17.933Z,88.84
2022-10-03T11:28:37.757Z,59.50
2022-10-03T11:31:47.808Z,50.68
2022-10-03T11:34:46.616Z,50.66
2022-10-03T11:37:38.797Z,77.54
2022-10-03T11:40:28.206Z,87.07
2022-10-03T11:43:34.658Z,77.37
2022-10-03T11:46:33.699Z,54.12
2022-10-03T11:49:20.523Z,59.23
2022-10-03T11:52:03.793Z,72.85
2022-10-03T11:54:36.194Z,84.69
2022-10-03T11:57:09.987Z,87.92
2022-10-03T11:59:51.144Z,89.04
2022-10-03T12:02:55.806Z,86.92
2022-10-03T12:06:16.927Z,92.18
2022-10-03T12:09:16.085Z,98.66
2022-10-03T12:12:12.672Z,94.13
2022-10-03T12:14:52.828Z,100.00
2022-10-03T12:17:35.462Z,97.31
2022-10-03T12:20:23.095Z,100.00
2022-10-03T12:23:28.261Z,97.45
2022-10-03T12:25:57.558Z,95.54
2022-10-03T12:28:35.177Z,95.23
2022-10-03T12:31:30.260Z,71.25
2022-10-03T12:34:39.844Z,82.16
2022-10-03T12:37:36.073Z,86.28
2022-10-03T12:40:18.023Z,89.10
2022-10-03T12:43:14.338Z,98.79
2022-10-03T12:46:01.435Z,91.00
2022-10-03T12:48:56.967Z,88.96
2022-10-03T12:51:47.035Z,92.66
2022-10-03T12:55:06.527Z,88.43
2022-10-03T12:58:19.115Z,89.67
2022-10-03T13:01:14.120Z,86.83
2022-10-03T13:04:16.141Z,78.78
2022-10-03T13:07:13.448Z,79.47
2022-10-03T13:10:09.625Z,82.00
2022-10-03T13:12:59.213Z,79.78
2022-10-03T13:16:04.503Z,86.78
2022-10-03T13:18:53.363Z,73.41
2022-10-03T13:21:49.515Z,77.02
2022-10-03T13:24:44.267Z,76.01
2022-10-03T13:27:46.628Z,78.68
2022-10-03T13:30:29.333Z,75.59
2022-10-03T13:33:50.815Z,73.31
2022-10-03T13:36:39.955Z,72.68
2022-10-03T13:39:19.383Z,72.40
2022-10-03T13:41:59.699Z,76.85
2022-10-03T13:45:00.004Z,74.00
2022-10-03T13:47:54.736Z,70.41
2022-10-03T13:50:55.450Z,63.99
2022-10-03T13:54:01.182Z,62.84
2022-10-03T13:56:44.560Z,62.31
2022-10-03T13:59:48.643Z,73.46
2022-10-03T14:02:43.202Z,83.27
2022-10-03T14:05:31.248Z,88.14
2022-10-03T14:09:08.013Z,85.13
2022-10-03T14:11:47.202Z,82.54
2022-10-03T14:14:52.971Z,82.46
2022-10-03T14:17:31.570Z,85.17
2022-10-03T14:20:16.933Z,77.24
2022-10-03T14:23:08.029Z,81.67
2022-10-03T14:25:58.100Z,88.82
2022-10-03T14:28:26.769Z,84.62
2022-10-03T14:31:24.366Z,81.22
2022-10-03T14:34:38.237Z,85.96
2022-10-03T14:37:41.298Z,100.00
2022-10-03T14:40:17.804Z,88.70
2022-10-03T14:43:32.864Z,86.48
2022-10-03T14:46:01.946Z,85.20
2022-10-03T14:48:34.254Z,100.00
2022-10-03T14:51:31.828Z,100.00
2022-10-03T14:54:27.775Z,91.26
2022-10-03T14:56:56.737Z,94.16
2022-10-03T14:59:32.795Z,92.08
2022-10-03T15:02:22.885Z,91.25
2022-10-03T15:04:53.858Z,92.72
2022-10-03T15:07:39.133Z,90.54
2022-10-03T15:10:30.563Z,97.68
2022-10-03T15:13:09.837Z,100.00
2022-10-03T15:15:41.801Z,96.80
2022-10-03T15:18:20.900Z,97.86
2022-10-03T15:20:51.837Z,100.00
2022-10-03T15:23:28.509Z,100.00
2022-10-03T15:25:57.500Z,100.00
2022-10-03T15:28:40.152Z,100.00
2022-10-03T15:31:28.088Z,100.00
2022-10-03T15:34:13.608Z,100.00
2022-10-03T15:36:55.640Z,100.00
2022-10-03T15:39:40.506Z,97.24
2022-10-03T15:42:10.423Z,100.00
2022-10-03T15:44:40.242Z,100.00
2022-10-03T15:47:19.455Z,100.00
2022-10-03T15:50:11.780Z,100.00
2022-10-03T15:52:43.685Z,100.00
2022-10-03T15:56:19.856Z,100.00
2022-10-03T15:59:01.953Z,100.00
2022-10-03T16:01:32.471Z,99.84
2022-10-03T16:04:21.157Z,100.00
2022-10-03T16:07:16.946Z,100.00
2022-10-03T16:10:10.056Z,100.00
2022-10-03T16:13:18.502Z,100.00
2022-10-03T16:16:09.019Z,100.00
2022-10-03T16:18:52.406Z,100.00
2022-10-03T16:21:46.673Z,100.00
2022-10-03T16:24:36.640Z,99.06
2022-10-03T16:27:24.665Z,98.88
2022-10-03T16:30:09.613Z,100.00
2022-10-03T16:32:53.265Z,92.97
2022-10-03T16:35:35.573Z,94.40
2022-10-03T16:38:09.233Z,95.85
2022-10-03T16:40:37.905Z,95.59
2022-10-03T16:43:10.914Z,95.86
2022-10-03T16:45:44.792Z,93.38
2022-10-03T16:48:50.224Z,93.15
2022-10-03T16:51:45.442Z,91.60
2022-10-03T16:54:19.463Z,95.17
2022-10-03T16:56:54.621Z,95.62
2022-10-03T16:59:23.756Z,97.03
2022-10-03T17:02:04.850Z,94.55
2022-10-03T17:04:36.724Z,97.58
2022-10-03T17:07:14.941Z,96.86
2022-10-03T17:09:59.820Z,96.03
2022-10-03T17:12:47.213Z,96.94
2022-10-03T17:15:28.730Z,96.41
2022-10-03T17:18:30.870Z,98.22
2022-10-03T17:21:22.030Z,98.68
2022-10-03T17:23:54.416Z,100.00
2022-10-03T17:26:39.201Z,100.00
2022-10-03T17:29:21.563Z,100.00
2022-10-03T17:32:01.081Z,100.00
2022-10-03T17:34:39.877Z,100.00
2022-10-03T17:37:42.082Z,100.00
2022-10-03T17:40:28.422Z,100.00
2022-10-03T17:43:02.593Z,100.00
2022-10-03T17:45:53.171Z,100.00
2022-10-03T17:48:33.898Z,100.00
2022-10-03T17:51:21.813Z,100.00
2022-10-03T17:53:57.765Z,100.00
2022-10-03T17:56:29.626Z,100.00
2022-10-03T17:59:05.257Z,100.00
2022-10-03T18:02:06.790Z,100.00
2022-10-03T18:04:42.867Z,100.00
2022-10-03T18:07:18.867Z,100.00
2022-10-03T18:09:51.786Z,100.00
2022-10-03T18:12:40.444Z,100.00
2022-10-03T18:15:53.250Z,100.00
2022-10-03T18:18:44.754Z,100.00
2022-10-03T18:21:36.003Z,100.00
2022-10-03T18:24:40.775Z,100.00
2022-10-03T18:27:51.522Z,100.00
2022-10-03T18:30:33.758Z,100.00
2022-10-03T18:33:01.890Z,100.00
2022-10-03T18:35:35.082Z,100.00
2022-10-03T18:38:27.221Z,100.00
2022-10-03T18:41:03.740Z,100.00
2022-10-03T18:43:45.178Z,100.00
2022-10-03T18:46:27.519Z,100.00
2022-10-03T18:49:37.052Z,100.00
2022-10-03T18:52:15.371Z,100.00
2022-10-03T18:55:11.829Z,100.00
2022-10-03T18:57:51.816Z,100.00
2022-10-03T19:00:25.711Z,100.00
2022-10-03T19:02:58.543Z,100.00
2022-10-03T19:05:38.017Z,100.00
2022-10-03T19:08:16.457Z,100.00
2022-10-03T19:10:47.274Z,100.00
2022-10-03T19:13:24.250Z,100.00
2022-10-03T19:16:36.366Z,100.00
2022-10-03T19:21:52.099Z,100.00
2022-10-03T19:24:46.160Z,100.00
2022-10-03T19:27:34.212Z,100.00
2022-10-03T19:30:01.371Z,100.00
2022-10-03T19:32:49.338Z,100.00
2022-10-03T19:36:01.595Z,100.00
2022-10-03T19:38:44.298Z,100.00
2022-10-03T19:41:38.614Z,100.00
2022-10-03T19:44:13.935Z,100.00
2022-10-03T19:47:16.521Z,100.00
2022-10-03T19:50:10.949Z,100.00
2022-10-03T19:52:41.912Z,100.00
2022-10-03T19:55:33.246Z,100.00
2022-10-03T19:58:08.481Z,100.00
2022-10-03T20:00:40.158Z,100.00
2022-10-03T20:03:17.250Z,100.00
2022-10-03T20:06:02.255Z,100.00
2022-10-03T20:08:53.214Z,100.00
2022-10-03T20:11:41.442Z,100.00
2022-10-03T20:14:16.292Z,100.00
2022-10-03T20:16:48.145Z,100.00
2022-10-03T20:19:22.778Z,100.00
2022-10-03T20:21:58.776Z,100.00
2022-10-03T20:24:52.630Z,100.00
2022-10-03T20:27:35.927Z,100.00
2022-10-03T20:30:29.462Z,100.00
2022-10-03T20:32:58.784Z,100.00
2022-10-03T20:35:52.400Z,100.00
2022-10-03T20:39:00.452Z,100.00
2022-10-03T20:41:39.883Z,100.00
2022-10-03T20:44:39.621Z,100.00
2022-10-03T20:47:42.346Z,100.00
2022-10-03T20:50:34.721Z,100.00
2022-10-03T20:53:26.213Z,100.00
2022-10-03T20:56:12.526Z,100.00
2022-10-03T20:58:55.978Z,100.00
2022-10-03T21:01:26.472Z,100.00
2022-10-03T21:04:32.435Z,100.00
2022-10-03T21:07:26.248Z,100.00
2022-10-03T21:10:28.629Z,100.00
2022-10-03T21:13:05.231Z,100.00
2022-10-03T21:16:04.542Z,100.00
2022-10-03T21:18:40.997Z,100.00
2022-10-03T21:21:37.317Z,100.00
2022-10-03T21:24:41.578Z,100.00
2022-10-03T21:27:15.795Z,100.00
2022-10-03T21:30:18.055Z,100.00
2022-10-03T21:33:11.972Z,100.00
2022-10-03T21:35:43.664Z,100.00
2022-10-03T21:38:31.990Z,100.00
2022-10-03T21:41:14.170Z,100.00
2022-10-03T21:44:00.379Z,100.00
2022-10-03T21:46:54.632Z,100.00
2022-10-03T21:50:03.064Z,100.00
2022-10-03T21:53:01.708Z,100.00
2022-10-03T21:56:08.559Z,100.00
2022-10-03T21:59:17.297Z,100.00
2022-10-03T22:02:14.181Z,100.00
2022-10-03T22:04:54.508Z,100.00
2022-10-03T22:07:47.966Z,100.00
2022-10-03T22:10:30.481Z,100.00
2022-10-03T22:13:05.735Z,100.00
2022-10-03T22:15:53.083Z,100.00
2022-10-03T22:18:21.765Z,100.00
2022-10-03T22:21:05.412Z,100.00
2022-10-03T22:23:47.696Z,100.00
2022-10-03T22:26:30.834Z,100.00
2022-10-03T22:29:23.190Z,100.00
2022-10-03T22:32:19.597Z,100.00
2022-10-03T22:35:05.416Z,100.00
2022-10-03T22:37:33.240Z,100.00
2022-10-03T22:40:01.443Z,100.00
2022-10-03T22:42:30.682Z,100.00
2022-10-03T22:44:58.213Z,100.00
2022-10-03T22:47:31.423Z,100.00
2022-10-03T22:50:14.643Z,100.00
2022-10-03T22:52:48.155Z,100.00
2022-10-03T22:55:21.097Z,100.00
2022-10-03T22:57:48.640Z,100.00
2022-10-03T23:00:24.249Z,100.00
2022-10-03T23:03:08.717Z,100.00
2022-10-03T23:06:00.419Z,100.00
2022-10-03T23:08:45.080Z,100.00
2022-10-03T23:11:24.460Z,100.00
2022-10-03T23:13:51.723Z,100.00
2022-10-03T23:16:45.765Z,100.00
2022-10-03T23:19:24.604Z,100.00
2022-10-03T23:21:55.822Z,100.00
2022-10-03T23:24:32.285Z,100.00
2022-10-03T23:27:15.101Z,100.00
2022-10-03T23:29:42.062Z,100.00
2022-10-03T23:32:10.142Z,100.00
2022-10-03T23:34:39.945Z,100.00
2022-10-03T23:37:15.661Z,100.00
2022-10-03T23:39:54.811Z,100.00
2022-10-03T23:42:26.112Z,100.00
2022-10-03T23:44:57.770Z,100.00
2022-10-03T23:47:40.627Z,100.00
2022-10-03T23:50:09.448Z,100.00
2022-10-03T23:52:53.166Z,100.00
2022-10-03T23:55:27.943Z,100.00
2022-10-03T23:57:55.739Z,100.00
